createdAt,value
2022-11-05T00:08:27.264Z,100
2022-11-05T00:18:27.855Z,100
2022-11-05T00:28:28.175Z,100
2022-11-05T00:38:29.108Z,100
2022-11-05T00:48:29.693Z,100
2022-11-05T00:58:30.600Z,100
2022-11-05T01:28:33.032Z,100
2022-11-05T01:48:33.974Z,100
2022-11-05T02:18:36.303Z,100
2022-11-05T02:28:36.452Z,100
2022-11-05T02:38:37.137Z,100
2022-11-05T02:48:38.151Z,100
2022-11-05T02:58:38.245Z,100
2022-11-05T03:08:38.436Z,100
2022-11-05T03:18:39.328Z,100
2022-11-05T03:28:40.313Z,100
2022-11-05T03:38:40.853Z,100
2022-11-05T03:48:41.093Z,100
2022-11-05T03:58:41.341Z,100
2022-11-05T04:08:42.279Z,100
2022-11-05T04:28:43.886Z,100
2022-11-05T04:38:44.673Z,100
2022-11-05T04:48:45.555Z,100
2022-11-05T04:58:46.059Z,100
2022-11-05T05:08:46.242Z,100
2022-11-05T05:18:47.236Z,100
2022-11-05T05:28:47.375Z,100
2022-11-05T05:48:48.218Z,100
2022-11-05T05:58:48.663Z,100
2022-11-05T06:08:48.903Z,100
2022-11-05T06:18:49.882Z,100
2022-11-05T06:28:50.470Z,100
2022-11-05T06:38:51.318Z,100
2022-11-05T06:48:51.958Z,100
2022-11-05T06:58:52.867Z,100
2022-11-05T07:08:53.928Z,100
2022-11-05T07:18:54.521Z,100
2022-11-05T07:28:54.912Z,100
2022-11-05T07:39:00.034Z,100
2022-11-05T07:48:56.046Z,100
2022-11-05T07:58:56.382Z,100
2022-11-05T08:08:56.499Z,100
2022-11-05T08:18:56.956Z,100
2022-11-05T08:38:58.152Z,100
2022-11-05T08:48:58.963Z,100
2022-11-05T08:58:59.306Z,100
2022-11-05T09:08:59.872Z,100
2022-11-05T09:19:00.568Z,100
2022-11-05T09:29:01.567Z,100
2022-11-05T09:39:02.255Z,100
2022-11-05T09:59:03.638Z,97
2022-11-05T10:19:04.989Z,93
2022-11-05T10:39:06.087Z,88
2022-11-05T10:59:11.982Z,84
2022-11-05T11:49:10.901Z,80
2022-11-05T11:59:11.697Z,79
2022-11-05T12:09:12.491Z,78
2022-11-05T12:19:13.428Z,78
2022-11-05T12:29:18.672Z,78
2022-11-05T12:39:14.745Z,78
2022-11-05T12:49:15.167Z,78
2022-11-05T12:59:15.311Z,79
2022-11-05T13:29:16.974Z,77
2022-11-05T13:39:17.180Z,77
2022-11-05T13:49:17.305Z,76
2022-11-05T13:59:17.691Z,75
2022-11-05T14:19:19.004Z,76
2022-11-05T14:29:19.785Z,76
2022-11-05T15:19:22.593Z,79
2022-11-05T15:39:29.268Z,79
2022-11-05T16:09:24.819Z,80
2022-11-05T16:19:25.313Z,80
2022-11-05T16:29:25.665Z,81
2022-11-05T16:59:26.293Z,82
2022-11-05T17:09:26.981Z,82
2022-11-05T19:09:34.592Z,81
2022-11-05T19:19:34.907Z,81
2022-11-05T19:29:35.406Z,82
2022-11-05T19:39:35.650Z,82
2022-11-05T19:59:36.541Z,83
2022-11-05T20:19:38.028Z,84
2022-11-05T20:29:38.442Z,84
2022-11-05T20:39:38.694Z,84
2022-11-05T20:49:39.312Z,85
2022-11-05T20:59:39.504Z,85
2022-11-05T21:09:40.191Z,86
2022-11-05T21:19:40.800Z,86
2022-11-05T21:29:40.919Z,86
2022-11-05T21:39:41.846Z,86
2022-11-05T21:49:42.925Z,85
2022-11-05T21:59:43.717Z,85
2022-11-05T22:09:44.340Z,85
2022-11-05T22:19:44.859Z,85
2022-11-05T22:29:45.857Z,85
2022-11-05T22:39:46.173Z,85
2022-11-05T22:49:46.872Z,85
2022-11-05T22:59:47.693Z,85
2022-11-05T23:09:47.819Z,85
2022-11-05T23:19:48.845Z,85
2022-11-05T23:20:10.776Z,85
2022-11-05T23:29:54.818Z,85
2022-11-05T23:39:55.609Z,85
2022-11-05T23:49:56.385Z,85
2022-11-05T23:59:57.155Z,85
